M I D A S
Marine Information and Data Acquisition System
Tripno 430 of the Zeeleeuw from 2003-02-13 07:17:29 to 2003-02-13 14:59:40
Back to CruiseResearch ActivitiesStationsMapUnderway DataData graphs

EquipmentUnitsComment
TimeDGPSUTC
LatitudeDGPSDM.mWGS84
LongitudeDGPSDM.mWGS84
TemperatureSBE03/SBE38deg celciusITS90
ConductivitySBE21S/mITS90
SalinitySBE21 Practical Salinity Units
ChlorophylAChelsea fluorimeterg/lCalibrated in Aceton
Missing or incorrect values are displayed as -999
Sea surface data collected by the RV Zeeleeuw from 2003-02-13 07:17:29 to 2003-02-13 14:59:40
Time Latitude Longitude Temperature Conductivity Salinity ChlorophylA
2003-02-13 07:18:32 51°13.594 2°56.103 11.895349 3.654212 29.570708 -0.848668
2003-02-13 07:19:32 51°13.603 2°56.069 11.913665 3.654317 29.570496 -0.882377
2003-02-13 07:20:32 51°13.628 2°55.974 11.906695 3.654422 29.569705 -0.848668
2003-02-13 07:21:32 51°13.662 2°55.885 11.901637 3.654528 29.569493 -0.814958
2003-02-13 07:22:32 51°13.675 2°55.845 11.923004 3.654633 29.569281 -0.882377
2003-02-13 07:23:32 51°13.684 2°55.755 11.918585 3.654844 29.568857 -0.848668
2003-02-13 07:24:32 51°13.69 2°55.724 11.912709 3.654949 29.568645 -0.848668
2003-02-13 07:25:31 51°13.725 2°55.724 11.922412 3.655054 29.566696 -0.882377
2003-02-13 07:26:32 51°13.793 2°55.671 11.942405 3.655265 29.56801 -0.848668
2003-02-13 07:27:32 51°13.886 2°55.595 11.947642 3.655371 29.567798 -0.882377
2003-02-13 07:28:31 51°14.012 2°55.507 11.941859 3.655476 29.565849 -0.848668
2003-02-13 07:29:32 51°14.155 2°55.405 11.93102 3.655687 29.566005 -0.848668
2003-02-13 07:30:32 51°14.277 2°55.256 11.935574 3.655897 29.566161 -0.848668
2003-02-13 07:31:31 51°14.378 2°55.073 -999 3.656108 29.566317 -0.848668
2003-02-13 07:32:32 51°14.498 2°54.908 -999 3.656108 29.566317 -0.848668
2003-02-13 07:33:31 51°14.621 2°54.73 -999 3.656213 29.565527 -0.882377
2003-02-13 07:34:31 51°14.73 2°54.473 -999 3.024651 27.016063 1.241315
2003-02-13 07:35:31 51°14.754 2°54.161 -999 2.881137 29.095228 3.76952
2003-02-13 07:36:31 51°14.818 2°53.852 -999 2.857571 29.329999 3.80323
2003-02-13 07:37:31 51°14.881 2°53.544 -999 2.842947 29.359167 3.600973
2003-02-13 07:38:31 51°14.949 2°53.219 -999 2.852628 29.516332 3.432426
2003-02-13 07:39:31 51°15.023 2°52.872 -999 2.866623 29.661105 2.994204
2003-02-13 07:40:31 51°15.099 2°52.522 -999 2.871043 29.707605 2.724529
2003-02-13 07:41:31 51°15.176 2°52.17 -999 2.872832 29.766705 2.65711
2003-02-13 07:42:31 51°15.251 2°51.816 -999 2.866203 29.730434 2.522272
2003-02-13 07:43:31 51°15.268 2°51.446 -999 2.86031 29.711234 2.454853
2003-02-13 07:44:32 51°15.235 2°51.073 -999 2.853682 29.668505 2.286306
2003-02-13 07:45:31 51°15.197 2°50.712 -999 2.856733 29.716967 2.320016
2003-02-13 07:46:31 51°15.158 2°50.346 -999 2.860311 29.768339 2.151469
2003-02-13 07:47:31 51°15.12 2°49.98 -999 2.859469 29.776961 1.982922
2003-02-13 07:48:31 51°15.083 2°49.615 -999 2.866204 29.859099 2.050341
2003-02-13 07:49:31 51°15.046 2°49.248 -999 2.874096 29.960201 1.679537
2003-02-13 07:50:31 51°15.009 2°48.881 -999 2.886724 30.094984 1.713247
2003-02-13 07:51:31 51°14.972 2°48.517 -999 2.88483 30.074003 1.578409
2003-02-13 07:52:31 51°14.935 2°48.153 -999 2.890092 30.136132 1.477281
2003-02-13 07:53:31 51°14.899 2°47.788 -999 2.889355 30.138934 1.780665
2003-02-13 07:54:31 51°14.865 2°47.423 -999 2.8983 30.218467 1.173896
2003-02-13 07:55:31 51°14.829 2°47.059 -999 2.906193 30.289056 1.207606
2003-02-13 07:56:31 51°14.792 2°46.697 -999 2.912086 30.339027 1.173896
2003-02-13 07:57:31 51°14.754 2°46.337 -999 2.913664 30.36933 1.106477
2003-02-13 07:58:31 51°14.72 2°45.976 -999 2.922399 30.446263 1.106477
2003-02-13 07:59:31 51°14.684 2°45.613 -999 2.923767 30.465245 1.072768
2003-02-13 08:00:31 51°14.647 2°45.246 -999 2.925767 30.495563 1.443571
2003-02-13 08:01:31 51°14.61 2°44.88 -999 2.934502 30.575688 1.173896
2003-02-13 08:02:31 51°14.572 2°44.516 -999 2.945447 30.678716 1.140187
2003-02-13 08:03:31 51°14.53 2°44.15 -999 2.959971 30.794937 1.241315
2003-02-13 08:04:31 51°14.487 2°43.785 -999 2.966391 30.853939 1.072768
2003-02-13 08:05:31 51°14.443 2°43.423 -999 2.974495 30.926499 1.005349
2003-02-13 08:06:31 51°14.398 2°43.061 -999 2.976916 30.949368 0.93793
2003-02-13 08:07:31 51°14.356 2°42.699 -999 2.983862 31.006096 1.241315
2003-02-13 08:08:31 51°14.313 2°42.338 -999 2.989651 31.06431 1.106477
2003-02-13 08:09:31 51°14.259 2°41.979 -999 2.991546 31.086882 1.106477
2003-02-13 08:10:31 51°14.203 2°41.624 -999 3.000387 31.171037 1.140187
2003-02-13 08:11:31 51°14.148 2°41.385 -999 3.00544 31.205871 1.072768
2003-02-13 08:12:31 51°14.1 2°41.263 -999 3.010071 31.25487 1.039059
2003-02-13 08:13:31 51°14.092 2°41.17 -999 3.01165 31.266361 1.039059
2003-02-13 08:14:31 51°14.121 2°41.113 8.202421 3.008282 31.229377 0.904221
2003-02-13 08:15:31 51°14.137 2°41.099 7.128419 3.007545 31.234161 0.904221
2003-02-13 08:16:31 51°14.145 2°41.094 7.569397 3.00744 31.232126 0.870512
2003-02-13 08:17:31 51°14.154 2°41.087 7.175428 3.009229 31.251004 1.072768
2003-02-13 08:18:31 51°14.168 2°41.078 6.800655 3.008703 31.243309 1.039059
2003-02-13 08:19:31 51°14.184 2°41.07 7.07799 3.006176 31.221768 0.93793
2003-02-13 08:20:31 51°14.202 2°41.06 6.786754 3.006492 31.231185 0.735674
2003-02-13 08:21:31 51°14.221 2°41.048 6.778126 3.005019 31.224203 0.97164
2003-02-13 08:22:31 51°14.242 2°41.035 7.268117 3.004177 31.215363 0.836802
2003-02-13 08:23:31 51°14.267 2°40.978 7.010427 3.004282 31.216571 0.904221
2003-02-13 08:24:31 51°14.228 2°40.914 7.512491 3.01165 31.287905 0.803093
2003-02-13 08:25:31 51°14.208 2°40.905 7.038375 3.009229 31.268401 0.904221
2003-02-13 08:26:31 51°14.193 2°40.902 7.458803 3.008387 31.253761 0.769383
2003-02-13 08:27:31 51°14.177 2°40.903 7.016322 3.004387 31.225231 0.668255
2003-02-13 08:28:31 51°14.162 2°40.909 7.465925 3.002703 31.208375 0.769383
2003-02-13 08:29:31 51°14.148 2°40.917 7.353148 3.005019 31.227514 0.701965
2003-02-13 08:30:31 51°14.134 2°40.927 7.104829 3.006492 31.239465 0.769383
2003-02-13 08:31:31 51°14.121 2°40.938 6.915296 3.006492 31.241122 0.701965
2003-02-13 08:32:31 51°14.109 2°40.95 7.033464 3.007334 31.242507 0.600836
2003-02-13 08:33:31 51°14.096 2°40.964 7.726114 3.006703 31.236085 0.533418
2003-02-13 08:34:32 51°14.086 2°40.981 6.645403 3.009755 31.258699 0.499708
2003-02-13 08:35:31 51°14.078 2°40.997 6.609472 3.010071 31.26398 0.634546
2003-02-13 08:36:32 51°14.071 2°41.014 6.735659 3.011966 31.279924 0.465999
2003-02-13 08:37:31 51°14.063 2°41.03 6.943531 3.010281 31.257286 0.432289
2003-02-13 08:38:31 51°14.053 2°41.045 6.830073 3.014281 31.29738 0.701965
2003-02-13 08:39:31 51°14.04 2°41.061 7.164745 3.013229 31.277848 1.039059
2003-02-13 08:40:31 51°14.021 2°41.072 7.053006 3.016807 31.303984 0.533418
2003-02-13 08:41:31 51°13.999 2°41.073 6.927103 3.018702 31.325711 0.465999
2003-02-13 08:42:31 51°13.978 2°41.061 7.130675 3.019755 31.336124 0.668255
2003-02-13 08:43:31 51°13.961 2°41.032 7.0148 3.020176 31.340952 0.432289
2003-02-13 08:44:31 51°13.952 2°40.99 6.576341 3.020807 31.341561 0.432289
2003-02-13 08:45:31 51°13.957 2°40.943 6.927939 3.024281 31.373093 0.533418
2003-02-13 08:46:31 51°13.976 2°40.901 6.928825 3.023439 31.368416 0.499708
2003-02-13 08:47:31 51°14.006 2°40.874 7.003402 3.023439 31.374226 0.465999
2003-02-13 08:48:31 51°14.041 2°40.864 6.878434 3.022913 31.373171 0.432289
2003-02-13 08:49:31 51°14.085 2°40.868 7.078923 3.021439 31.362078 0.567127
2003-02-13 08:50:31 51°14.175 2°40.799 7.029535 3.019439 31.338307 0.465999
2003-02-13 08:51:32 51°14.314 2°40.677 7.209474 3.016492 31.322744 0.499708
2003-02-13 08:52:31 51°14.482 2°40.54 7.958005 3.019123 31.36291 1.072768
2003-02-13 08:53:31 51°14.686 2°40.373 7.94537 3.052913 31.655535 0.432289
2003-02-13 08:54:31 51°14.896 2°40.218 8.89658 3.123339 32.190592 0.465999
2003-02-13 08:55:31 51°15.107 2°40.063 7.868538 3.124497 32.193689 0.432289
2003-02-13 08:56:31 51°15.319 2°39.907 8.135455 3.124182 32.198513 0.600836
2003-02-13 08:57:32 51°15.534 2°39.749 8.083977 3.121339 32.177886 0.567127
2003-02-13 08:58:31 51°15.742 2°39.596 7.891074 3.120497 32.178389 0.567127
2003-02-13 08:59:31 51°15.956 2°39.442 8.115129 3.107864 32.111657 0.533418
2003-02-13 09:00:32 51°16.175 2°39.282 7.629317 3.100284 32.074717 0.600836
2003-02-13 09:01:32 51°16.395 2°39.145 8.46258 3.102811 32.103638 0.567127
2003-02-13 09:02:32 51°16.605 2°39.017 8.274183 3.144712 32.411568 2.421144
2003-02-13 09:03:31 51°16.73 2°39.016 7.892431 3.155135 32.493119 2.08405
2003-02-13 09:04:31 51°16.795 2°39 7.97717 3.157662 32.514286 2.117759
2003-02-13 09:05:31 51°16.798 2°38.934 8.020901 3.157557 32.507142 1.848084
2003-02-13 09:06:32 51°16.756 2°38.917 7.617785 3.15524 32.490924 1.848084
2003-02-13 09:07:31 51°16.737 2°38.927 7.62596 3.156504 32.501932 1.881794
2003-02-13 09:08:32 51°16.72 2°38.941 7.501084 3.156925 32.507582 2.117759
2003-02-13 09:09:32 51°16.705 2°38.957 7.848807 3.153661 32.470376 2.08405
2003-02-13 09:10:32 51°16.692 2°38.973 7.20776 3.154187 32.484013 2.08405
2003-02-13 09:11:32 51°16.682 2°38.988 7.482702 3.15524 32.496018 2.185178
2003-02-13 09:12:32 51°16.671 2°39.001 7.689522 3.154609 32.495607 2.016631
2003-02-13 09:13:32 51°16.662 2°39.012 7.730777 3.154924 32.494963 2.117759
2003-02-13 09:14:32 51°16.652 2°39.025 7.811315 3.156293 32.506324 2.050341
2003-02-13 09:15:32 51°16.643 2°39.036 7.809084 3.155661 32.499121 2.117759
2003-02-13 09:16:32 51°16.634 2°39.047 7.415957 3.155872 32.500673 2.117759
2003-02-13 09:17:31 51°16.625 2°39.057 7.886858 3.155977 32.501024 2.050341
2003-02-13 09:18:32 51°16.616 2°39.066 7.124398 3.152292 32.464103 2.151469
2003-02-13 09:19:31 51°16.608 2°39.076 7.408243 3.154609 32.492211 2.185178
2003-02-13 09:20:31 51°16.599 2°39.086 7.764966 3.152398 32.468697 2.08405
2003-02-13 09:21:32 51°16.59 2°39.096 7.287393 3.151766 32.463191 2.151469
2003-02-13 09:22:32 51°16.582 2°39.105 6.849531 3.153872 32.480412 2.185178
2003-02-13 09:23:32 51°16.573 2°39.113 7.412539 3.153345 32.472713 2.151469
2003-02-13 09:24:32 51°16.565 2°39.122 7.245361 3.154609 32.490513 2.117759
2003-02-13 09:25:31 51°16.557 2°39.132 8.240264 3.153977 32.487554 2.117759
2003-02-13 09:26:32 51°16.549 2°39.142 7.254024 3.150397 32.443345 2.117759
2003-02-13 09:27:32 51°16.541 2°39.151 7.578649 3.154609 32.487966 2.08405
2003-02-13 09:28:32 51°16.533 2°39.161 7.376697 3.155556 32.496223 2.151469
2003-02-13 09:29:31 51°16.525 2°39.17 7.215742 3.154608 32.481177 2.185178
2003-02-13 09:30:31 51°16.514 2°39.179 7.900765 3.154609 32.486269 2.185178
2003-02-13 09:31:31 51°16.499 2°39.189 7.152001 3.153134 32.459289 2.185178
2003-02-13 09:32:32 51°16.482 2°39.196 8.006537 3.157767 32.501055 2.286306
2003-02-13 09:33:31 51°16.464 2°39.198 8.249564 3.155661 32.468585 2.353725
2003-02-13 09:34:31 51°16.427 2°39.22 7.897082 3.157662 32.479505 2.387435
2003-02-13 09:35:32 51°16.425 2°39.349 7.673771 3.156819 32.469067 2.320016
2003-02-13 09:36:32 51°16.496 2°39.511 7.737189 3.162294 32.51954 2.252597
2003-02-13 09:37:32 51°16.613 2°39.747 7.827081 3.159873 32.511471 2.218888
2003-02-13 09:38:32 51°16.743 2°40.013 7.537832 3.10776 32.206033 1.072768
2003-02-13 09:39:32 51°16.874 2°40.283 8.410257 3.104286 32.186552 1.106477
2003-02-13 09:40:32 51°17.002 2°40.557 7.488749 3.110181 32.201563 1.207606
2003-02-13 09:41:31 51°17.114 2°40.837 8.078807 3.102391 32.164815 0.735674
2003-02-13 09:42:32 51°17.206 2°41.072 7.574997 3.099864 32.146004 0.701965
2003-02-13 09:43:32 51°17.245 2°41.225 7.228913 3.098495 32.113366 0.735674
2003-02-13 09:44:31 51°17.263 2°41.291 7.632139 3.101127 32.135076 0.634546
2003-02-13 09:45:32 51°17.274 2°41.292 7.455729 3.105443 32.176935 1.039059
2003-02-13 09:46:32 51°17.285 2°41.291 7.554103 3.10239 32.142784 1.140187
2003-02-13 09:47:32 51°17.288 2°41.308 7.556977 3.102812 32.152693 0.836802
2003-02-13 09:48:32 51°17.288 2°41.337 7.155825 3.105865 32.173287 0.701965
2003-02-13 09:49:31 51°17.293 2°41.366 7.395207 3.104391 32.168256 0.634546
2003-02-13 09:50:31 51°17.3 2°41.385 6.79474 3.100601 32.123117 0.600836
2003-02-13 09:51:31 51°17.306 2°41.393 7.317957 3.104075 32.155316 0.567127
2003-02-13 09:52:32 51°17.314 2°41.391 7.515659 3.104285 32.164507 1.005349
2003-02-13 09:53:32 51°17.322 2°41.386 7.831883 3.099758 32.117694 0.97164
2003-02-13 09:54:31 51°17.332 2°41.384 8.067597 3.104075 32.168872 0.634546
2003-02-13 09:55:32 51°17.34 2°41.383 7.511662 3.103022 32.159344 0.735674
2003-02-13 09:56:32 51°17.342 2°41.387 6.993083 3.103864 32.165611 0.769383
2003-02-13 09:57:32 51°17.338 2°41.393 7.074457 3.103443 32.160782 0.836802
2003-02-13 09:58:32 51°17.332 2°41.399 7.832998 3.099021 32.104172 0.97164
2003-02-13 09:59:31 51°17.325 2°41.401 7.153031 3.099022 32.105018 0.97164
2003-02-13 10:00:32 51°17.317 2°41.399 7.83843 3.099337 32.109483 0.836802
2003-02-13 10:01:32 51°17.309 2°41.391 7.671049 3.096705 32.08101 0.769383
2003-02-13 10:02:32 51°17.301 2°41.384 7.185129 3.10218 32.149687 0.803093
2003-02-13 10:03:31 51°17.292 2°41.377 7.344059 3.099337 32.117944 0.803093
2003-02-13 10:04:32 51°17.284 2°41.365 8.493694 3.093968 32.064003 0.600836
2003-02-13 10:05:32 51°17.277 2°41.357 7.022315 3.095337 32.076311 0.870512
2003-02-13 10:06:31 51°17.272 2°41.352 7.582106 3.094284 32.068469 1.005349
2003-02-13 10:07:31 51°17.269 2°41.35 7.098795 3.100706 32.1438 0.904221
2003-02-13 10:08:31 51°17.267 2°41.349 7.098795 3.100601 32.143439 0.97164
2003-02-13 10:09:32 51°17.254 2°41.335 6.978389 3.100706 32.142952 1.005349
2003-02-13 10:10:31 51°17.249 2°41.285 6.857509 3.099548 32.131365 0.836802
2003-02-13 10:11:31 51°17.26 2°41.233 7.255297 3.100917 32.147062 0.668255
2003-02-13 10:12:32 51°17.291 2°41.193 7.415566 3.097548 32.112659 0.533418
2003-02-13 10:13:31 51°17.35 2°41.192 7.251088 3.100496 32.143927 0.634546
2003-02-13 10:14:31 51°17.378 2°41.317 7.293018 3.100811 32.148397 0.533418
2003-02-13 10:15:32 51°17.304 2°41.424 7.300158 3.098917 32.130897 0.533418
2003-02-13 10:16:31 51°17.251 2°41.463 7.021578 3.098285 32.114338 0.465999
2003-02-13 10:17:32 51°17.212 2°41.47 7.666332 3.097969 32.106485 0.465999
2003-02-13 10:18:32 51°17.186 2°41.461 7.707262 3.102391 32.15888 0.432289
2003-02-13 10:19:31 51°17.166 2°41.45 7.550742 3.102917 32.159831 0.499708
2003-02-13 10:20:32 51°17.15 2°41.435 7.549524 3.102917 32.159831 0.465999
2003-02-13 10:21:31 51°17.139 2°41.418 7.40131 3.101969 32.149814 0.533418
2003-02-13 10:22:31 51°17.131 2°41.398 6.694151 3.100811 32.143312 0.533418
2003-02-13 10:23:32 51°17.129 2°41.371 7.492162 3.099443 32.133546 0.634546
2003-02-13 10:24:31 51°17.143 2°41.325 7.854189 3.099443 32.131852 0.600836
2003-02-13 10:25:32 51°17.199 2°41.296 7.043776 3.099127 32.129924 0.600836
2003-02-13 10:26:32 51°17.268 2°41.346 7.321917 3.097758 32.121849 0.668255
2003-02-13 10:27:30 51°17.433 2°41.489 7.851813 3.099127 32.135007 0.567127
2003-02-13 10:28:31 51°17.635 2°41.722 7.879735 3.101654 32.148734 0.769383
2003-02-13 10:29:32 51°17.838 2°41.959 7.85448 3.10418 32.164147 0.668255
2003-02-13 10:30:32 51°18.027 2°42.213 7.336435 3.108602 32.192792 0.668255
2003-02-13 10:31:32 51°18.213 2°42.477 7.986461 3.108917 32.191327 0.567127
2003-02-13 10:32:32 51°18.398 2°42.741 8.471896 3.110286 32.197685 0.634546
2003-02-13 10:33:31 51°18.56 2°43.027 8.682792 3.11355 32.221505 0.668255
2003-02-13 10:34:32 51°18.687 2°43.368 8.52201 3.117129 32.245537 0.567127
2003-02-13 10:35:32 51°18.725 2°43.622 8.365252 3.117761 32.245987 0.600836
2003-02-13 10:36:31 51°18.81 2°43.743 8.036228 3.111444 32.199089 0.364871
2003-02-13 10:37:32 51°18.903 2°43.807 8.158959 3.110707 32.194038 0.567127
2003-02-13 10:38:32 51°18.935 2°43.826 8.681261 3.11176 32.203553 0.701965
2003-02-13 10:39:31 51°18.966 2°43.789 7.693168 3.115339 32.233523 1.140187
2003-02-13 10:40:32 51°18.979 2°43.787 8.251973 3.11197 32.200035 0.735674
2003-02-13 10:41:32 51°18.986 2°43.785 6.851402 3.114392 32.221828 1.039059
2003-02-13 10:42:32 51°18.99 2°43.785 7.12837 3.113023 32.213783 1.005349
2003-02-13 10:43:32 51°18.991 2°43.788 7.724268 3.11197 32.20427 0.97164
2003-02-13 10:44:32 51°18.994 2°43.794 7.285925 3.112707 32.21525 0.93793
2003-02-13 10:45:32 51°18.998 2°43.802 7.009543 3.112707 32.213556 0.904221
2003-02-13 10:46:32 51°19.003 2°43.811 6.935317 3.114076 32.21906 0.870512
2003-02-13 10:47:32 51°19.006 2°43.82 7.612481 3.114392 32.22776 0.769383
2003-02-13 10:48:32 51°19.01 2°43.829 7.292382 3.112918 32.213425 0.769383
2003-02-13 10:49:32 51°19.013 2°43.839 7.543142 3.114602 32.227628 0.769383
2003-02-13 10:50:32 51°19.015 2°43.85 7.622505 3.116918 32.245669 0.769383
2003-02-13 10:51:32 51°19.016 2°43.86 7.54285 3.116076 32.236875 0.735674
2003-02-13 10:52:32 51°19.015 2°43.873 7.261952 3.116813 32.244464 0.668255
2003-02-13 10:53:31 51°19.013 2°43.885 7.541291 3.115971 32.234823 0.634546
2003-02-13 10:54:32 51°19.009 2°43.898 7.423523 3.115129 32.22857 0.634546
2003-02-13 10:55:32 51°19.004 2°43.91 7.429136 3.116392 32.237948 0.634546
2003-02-13 10:56:32 51°18.998 2°43.921 7.949679 3.117234 32.242504 0.668255
2003-02-13 10:57:32 51°18.993 2°43.929 7.565452 3.116602 32.23358 0.634546
2003-02-13 10:58:32 51°18.987 2°43.937 7.999088 3.116287 32.233354 0.735674
2003-02-13 10:59:32 51°18.98 2°43.941 7.955294 3.12134 32.269997 0.735674
2003-02-13 11:00:32 51°18.975 2°43.942 8.036325 3.117234 32.238268 0.836802
2003-02-13 11:01:31 51°18.966 2°43.94 7.711635 3.117445 32.238136 0.735674
2003-02-13 11:02:32 51°18.958 2°43.924 8.065374 3.115655 32.226971 0.499708
2003-02-13 11:03:32 51°18.96 2°43.895 7.834405 3.118182 32.248264 0.701965
2003-02-13 11:04:31 51°18.977 2°43.867 7.646052 3.118603 32.243764 0.499708
2003-02-13 11:05:31 51°19.003 2°43.851 7.649311 3.11955 32.252063 0.600836
2003-02-13 11:06:32 51°19.033 2°43.843 7.96483 3.120077 32.256391 0.567127
2003-02-13 11:07:32 51°19.066 2°43.843 7.724705 3.121656 32.26683 0.701965
2003-02-13 11:08:32 51°19.099 2°43.85 7.849147 3.122182 32.275394 0.567127
2003-02-13 11:09:32 51°19.131 2°43.863 7.846674 3.122709 32.280569 0.634546
2003-02-13 11:10:32 51°19.163 2°43.878 7.036607 3.121445 32.273744 0.668255
2003-02-13 11:11:32 51°19.195 2°43.899 7.394328 3.119971 32.263661 0.701965
2003-02-13 11:12:32 51°19.227 2°43.922 7.988832 3.119024 32.257055 0.735674
2003-02-13 11:13:32 51°19.26 2°43.946 7.553665 3.118497 32.251031 0.769383
2003-02-13 11:14:32 51°19.293 2°43.968 7.710032 3.118498 32.253574 0.769383
2003-02-13 11:15:32 51°19.328 2°43.98 7.868684 3.118392 32.254064 0.634546
2003-02-13 11:16:32 51°19.364 2°43.976 7.480215 3.119024 32.25536 0.668255
2003-02-13 11:17:32 51°19.397 2°43.957 7.717077 3.121129 32.275217 0.769383
2003-02-13 11:18:31 51°19.421 2°43.927 7.276092 3.122498 32.288335 0.93793
2003-02-13 11:19:32 51°19.437 2°43.886 7.598074 3.123867 32.305695 0.93793
2003-02-13 11:20:32 51°19.449 2°43.83 7.542509 3.120603 32.272585 0.803093
2003-02-13 11:21:32 51°19.454 2°43.764 7.496599 3.116813 32.243616 0.567127
2003-02-13 11:22:32 51°19.453 2°43.693 7.64576 3.11555 32.238477 0.567127
2003-02-13 11:23:32 51°19.442 2°43.627 7.810054 3.114181 32.224501 0.432289
2003-02-13 11:24:31 51°19.427 2°43.563 6.691139 3.114497 32.228965 0.465999
2003-02-13 11:25:31 51°19.414 2°43.494 7.756081 3.114602 32.230171 0.499708
2003-02-13 11:26:31 51°19.403 2°43.422 7.445679 3.112918 32.220204 0.533418
2003-02-13 11:27:32 51°19.39 2°43.35 7.922853 3.114392 32.228607 0.533418
2003-02-13 11:28:32 51°19.377 2°43.279 7.561215 3.113128 32.22092 0.499708
2003-02-13 11:29:32 51°19.365 2°43.207 7.244872 3.112602 32.215739 0.465999
2003-02-13 11:30:32 51°19.353 2°43.134 7.007578 3.113865 32.223427 0.499708
2003-02-13 11:31:32 51°19.341 2°43.061 7.449387 3.115234 32.234861 0.533418
2003-02-13 11:32:31 51°19.33 2°42.987 7.303092 3.11576 32.236649 0.567127
2003-02-13 11:33:32 51°19.319 2°42.913 7.945951 3.119656 32.273613 0.634546
2003-02-13 11:34:32 51°19.308 2°42.84 7.482361 3.121024 32.275708 0.600836
2003-02-13 11:35:31 51°19.294 2°42.762 7.709643 3.124077 32.293682 0.465999
2003-02-13 11:36:32 51°19.272 2°42.681 7.711295 3.134921 32.363379 0.533418
2003-02-13 11:37:32 51°19.249 2°42.599 8.139896 3.154714 32.495109 0.533418
2003-02-13 11:38:31 51°19.23 2°42.517 8.227443 3.160399 32.536997 0.634546
2003-02-13 11:39:31 51°19.21 2°42.433 7.981574 3.159768 32.527248 0.465999
2003-02-13 11:40:31 51°19.189 2°42.349 8.279577 3.155767 32.497775 0.533418
2003-02-13 11:41:31 51°19.167 2°42.267 7.791906 3.152924 32.470457 0.600836
2003-02-13 11:42:31 51°19.145 2°42.185 7.467778 3.151134 32.46532 0.567127
2003-02-13 11:43:30 51°19.124 2°42.104 7.460218 3.149766 32.4548 0.567127
2003-02-13 11:44:31 51°19.098 2°42.007 7.614574 3.147344 32.434812 0.533418
2003-02-13 11:45:31 51°19.07 2°41.901 7.851813 3.146923 32.431704 0.499708
2003-02-13 11:46:31 51°19.041 2°41.791 8.093928 3.14787 32.442515 0.499708
2003-02-13 11:47:31 51°19.009 2°41.674 8.015533 3.14766 32.437567 0.499708
2003-02-13 11:48:31 51°18.962 2°41.503 7.618515 3.148081 32.439827 0.600836
2003-02-13 11:49:30 51°18.91 2°41.312 7.685779 3.147133 32.43241 0.533418
2003-02-13 11:50:31 51°18.854 2°41.111 7.637345 3.145975 32.430224 0.701965
2003-02-13 11:51:32 51°18.797 2°40.911 7.59564 3.143659 32.415667 0.634546
2003-02-13 11:52:30 51°18.725 2°40.785 7.71834 3.142501 32.403297 0.567127
2003-02-13 11:53:32 51°18.672 2°40.761 8.315738 3.142501 32.399057 0.533418
2003-02-13 11:54:32 51°18.656 2°40.773 7.716786 3.141553 32.387396 0.904221
2003-02-13 11:55:32 51°18.633 2°40.782 7.203841 3.141553 32.387396 0.904221
2003-02-13 11:56:31 51°18.608 2°40.753 8.159779 3.14208 32.392556 1.005349
2003-02-13 11:57:31 51°18.608 2°40.719 7.529256 3.142501 32.392276 0.904221
2003-02-13 11:58:31 51°18.614 2°40.685 7.726745 3.142817 32.391642 0.93793
2003-02-13 11:59:31 51°18.619 2°40.654 7.40463 3.142501 32.386345 0.904221
2003-02-13 12:00:31 51°18.625 2°40.626 7.480166 3.141974 32.38627 0.803093
2003-02-13 12:01:31 51°18.635 2°40.607 7.880122 3.140711 32.377785 0.870512
2003-02-13 12:02:31 51°18.645 2°40.598 7.76351 3.141027 32.375459 0.97164
2003-02-13 12:03:30 51°18.657 2°40.595 7.52448 3.141448 32.378569 0.93793
2003-02-13 12:04:31 51°18.67 2°40.591 7.523067 3.141343 32.378215 0.93793
2003-02-13 12:05:31 51°18.708 2°40.594 7.126213 3.141237 32.376167 0.93793
2003-02-13 12:06:30 51°18.751 2°40.686 7.499329 3.141659 32.380124 0.803093
2003-02-13 12:07:31 51°18.754 2°40.727 7.156854 3.140395 32.375028 0.668255
2003-02-13 12:08:31 51°18.749 2°40.747 7.717369 3.141869 32.394391 1.207606
2003-02-13 12:09:31 51°18.739 2°40.769 7.037883 3.141237 32.378708 1.005349
2003-02-13 12:10:31 51°18.729 2°40.795 7.77351 3.140922 32.378493 0.836802
2003-02-13 12:11:31 51°18.718 2°40.824 7.641139 3.140711 32.378632 0.769383
2003-02-13 12:12:31 51°18.706 2°40.857 7.927067 3.141975 32.388812 0.803093
2003-02-13 12:13:31 51°18.695 2°40.891 7.449241 3.142396 32.388532 0.735674
2003-02-13 12:14:32 51°18.636 2°40.904 8.016984 3.142501 32.385498 0.93793
2003-02-13 12:15:31 51°18.611 2°40.825 7.499183 3.143975 32.395534 0.735674
2003-02-13 12:16:32 51°18.615 2°40.805 8.100303 3.144712 32.401398 0.870512
2003-02-13 12:17:32 51°18.625 2°40.787 7.660691 3.144712 32.399704 1.005349
2003-02-13 12:18:31 51°18.637 2°40.768 7.580402 3.144396 32.397796 1.005349
2003-02-13 12:19:32 51°18.651 2°40.749 7.65646 3.143869 32.393486 0.870512
2003-02-13 12:20:32 51°18.664 2°40.726 8.206471 3.142817 32.386559 0.803093
2003-02-13 12:21:32 51°18.676 2°40.702 7.725822 3.141764 32.37455 0.870512
2003-02-13 12:22:32 51°18.689 2°40.677 7.965168 3.141553 32.37977 0.769383
2003-02-13 12:23:32 51°18.7 2°40.651 7.204527 3.140922 32.372564 0.701965
2003-02-13 12:24:31 51°18.709 2°40.624 7.485043 3.140922 32.372564 0.701965
2003-02-13 12:25:30 51°18.701 2°40.566 7.718972 3.141237 32.379555 1.072768
2003-02-13 12:26:30 51°18.679 2°40.536 7.64396 3.1405 32.371994 0.701965
2003-02-13 12:27:30 51°18.659 2°40.522 7.801369 3.141237 32.378708 0.803093
2003-02-13 12:28:31 51°18.639 2°40.531 7.597247 3.140501 32.376229 0.870512
2003-02-13 12:29:30 51°18.623 2°40.552 7.719409 3.139869 32.367327 0.634546
2003-02-13 12:30:31 51°18.609 2°40.579 8.044447 3.139763 32.363585 0.769383
2003-02-13 12:31:31 51°18.597 2°40.606 7.845849 3.141132 32.375813 0.803093
2003-02-13 12:32:32 51°18.588 2°40.65 8.053147 3.141974 32.381187 0.769383
2003-02-13 12:33:31 51°18.636 2°40.792 8.216307 3.143133 32.390162 0.735674
2003-02-13 12:34:32 51°18.739 2°41.103 8.268836 3.144291 32.394901 0.836802
2003-02-13 12:35:30 51°18.81 2°41.453 7.276924 3.148607 32.428873 0.803093
2003-02-13 12:36:30 51°18.884 2°41.817 7.637345 3.148081 32.418635 0.600836
2003-02-13 12:37:32 51°18.959 2°42.194 7.885792 3.149871 32.440734 0.499708
2003-02-13 12:38:32 51°19.034 2°42.556 7.812334 3.151976 32.452871 0.432289
2003-02-13 12:39:32 51°19.111 2°42.918 8.167451 3.133342 32.330928 0.499708
2003-02-13 12:40:32 51°19.188 2°43.28 7.497574 3.115128 32.20571 0.533418
2003-02-13 12:41:32 51°19.265 2°43.642 7.578844 3.111549 32.189289 0.567127
2003-02-13 12:42:32 51°19.342 2°44.004 7.906917 3.114286 32.205382 0.499708
2003-02-13 12:43:31 51°19.408 2°44.364 7.376208 3.116076 32.208934 0.567127
2003-02-13 12:44:31 51°19.471 2°44.733 7.314681 3.119129 32.232006 0.533418
2003-02-13 12:45:32 51°19.532 2°45.107 7.578357 3.125235 32.275574 0.499708
2003-02-13 12:46:30 51°19.585 2°45.46 7.711441 3.127762 32.288362 0.465999
2003-02-13 12:47:30 51°19.637 2°45.827 7.622651 3.133868 32.327624 0.499708
2003-02-13 12:48:31 51°19.69 2°46.203 7.219855 3.135236 32.334782 0.364871
2003-02-13 12:49:31 51°19.743 2°46.572 7.830476 3.133131 32.31244 0.364871
2003-02-13 12:50:32 51°19.799 2°46.949 7.767442 3.12176 32.217278 0.432289
2003-02-13 12:51:31 51°19.847 2°47.268 7.358181 3.112812 32.131948 0.432289
2003-02-13 12:52:31 51°19.881 2°47.488 7.360429 3.110285 32.112356 0.364871
2003-02-13 12:53:31 51°19.879 2°47.609 7.506105 3.108495 32.09528 0.432289
2003-02-13 12:54:30 51°19.858 2°47.675 7.112333 3.106811 32.078564 0.364871
2003-02-13 12:55:32 51°19.86 2°47.731 7.349972 3.107232 32.081691 0.364871
2003-02-13 12:56:32 51°19.876 2°47.769 7.306271 3.105863 32.070265 0.364871
2003-02-13 12:57:31 51°19.896 2°47.78 7.275261 3.103547 32.047171 0.567127
2003-02-13 12:58:32 51°19.916 2°47.769 7.903187 3.105758 32.063172 0.668255
2003-02-13 12:59:32 51°19.937 2°47.749 8.18448 3.105442 32.066295 0.567127
2003-02-13 13:00:32 51°19.958 2°47.733 7.230382 3.106074 32.070987 0.432289
2003-02-13 13:01:32 51°19.977 2°47.715 7.392667 3.10639 32.071228 0.465999
2003-02-13 13:02:32 51°19.994 2°47.695 7.669639 3.107127 32.079646 0.499708
2003-02-13 13:03:32 51°20.01 2°47.673 7.58863 3.105863 32.066057 0.465999
2003-02-13 13:04:32 51°20.025 2°47.65 7.267041 3.106811 32.077722 0.465999
2003-02-13 13:05:32 51°20.039 2°47.625 7.228375 3.106285 32.071709 0.432289
2003-02-13 13:06:32 51°20.052 2°47.598 7.789868 3.107443 32.083254 0.465999
2003-02-13 13:07:32 51°20.064 2°47.571 7.433479 3.1066 32.072792 0.432289
2003-02-13 13:08:31 51°20.075 2°47.541 7.355543 3.109022 32.098767 0.432289
2003-02-13 13:09:31 51°20.083 2°47.509 7.754333 3.110075 32.109108 0.432289
2003-02-13 13:10:31 51°20.088 2°47.475 7.360673 3.110917 32.113674 0.465999
2003-02-13 13:11:31 51°20.091 2°47.438 7.362969 3.11018 32.104415 0.39858
2003-02-13 13:12:31 51°20.09 2°47.399 7.088737 3.112391 32.127138 0.39858
2003-02-13 13:13:32 51°20.082 2°47.362 7.134892 3.112812 32.12605 0.803093
2003-02-13 13:14:31 51°20.066 2°47.336 7.172537 3.113443 32.132421 0.634546
2003-02-13 13:15:32 51°20.045 2°47.323 7.928471 3.112706 32.127375 0.533418
2003-02-13 13:16:31 51°20.028 2°47.322 7.56779 3.109969 32.096117 0.364871
2003-02-13 13:17:32 51°20.011 2°47.329 7.368295 3.11576 32.163932 0.432289
2003-02-13 13:18:32 51°19.997 2°47.339 7.847595 3.114286 32.14541 0.432289
2003-02-13 13:19:31 51°19.987 2°47.352 6.924742 3.114286 32.14794 0.39858
2003-02-13 13:20:32 51°19.977 2°47.367 7.464608 3.113759 32.143613 0.432289
2003-02-13 13:21:32 51°19.962 2°47.383 7.924548 3.113338 32.139646 0.432289
2003-02-13 13:22:32 51°19.94 2°47.399 7.994444 3.11597 32.166337 0.533418
2003-02-13 13:23:31 51°19.914 2°47.407 7.40673 3.113865 32.140601 0.499708
2003-02-13 13:24:31 51°19.885 2°47.399 8.081513 3.112812 32.132791 0.465999
2003-02-13 13:25:31 51°19.859 2°47.37 7.600897 3.111654 32.121249 0.567127
2003-02-13 13:26:31 51°19.844 2°47.321 7.274918 3.108916 32.099249 0.600836
2003-02-13 13:27:32 51°19.845 2°47.266 7.184786 3.107232 32.082532 0.567127
2003-02-13 13:28:32 51°19.86 2°47.224 7.620267 3.105863 32.07279 0.499708
2003-02-13 13:29:32 51°19.88 2°47.194 7.861219 3.105021 32.064009 0.533418
2003-02-13 13:30:32 51°19.902 2°47.174 7.585173 3.105969 32.073993 0.533418
2003-02-13 13:31:32 51°19.926 2°47.162 7.673091 3.107022 32.082653 0.499708
2003-02-13 13:32:32 51°19.952 2°47.154 7.605862 3.109653 32.102614 0.533418
2003-02-13 13:33:32 51°19.983 2°47.154 7.214518 3.113128 32.13387 0.533418
2003-02-13 13:34:32 51°20.017 2°47.168 7.212755 3.115759 32.155498 0.567127
2003-02-13 13:35:32 51°20.058 2°47.225 7.33492 3.11576 32.157185 0.533418
2003-02-13 13:36:32 51°20.069 2°47.322 7.379334 3.116602 32.16596 0.465999
2003-02-13 13:37:32 51°20.046 2°47.416 7.578357 3.116812 32.167521 0.465999
2003-02-13 13:38:31 51°20.002 2°47.491 7.653494 3.115233 32.152859 0.39858
2003-02-13 13:39:32 51°19.946 2°47.554 7.691272 3.113654 32.137353 0.364871
2003-02-13 13:40:32 51°19.883 2°47.598 8.011857 3.112285 32.118354 0.39858
2003-02-13 13:41:32 51°19.817 2°47.624 7.248641 3.1086 32.077966 0.364871
2003-02-13 13:42:32 51°19.752 2°47.641 7.483482 3.107127 32.067025 0.432289
2003-02-13 13:43:32 51°19.685 2°47.637 6.873807 3.105547 32.05572 0.465999
2003-02-13 13:44:32 51°19.619 2°47.606 7.432601 3.103021 32.036953 0.432289
2003-02-13 13:45:32 51°19.558 2°47.554 7.731554 3.09881 31.993896 0.39858
2003-02-13 13:46:32 51°19.507 2°47.477 7.438164 3.089756 31.909774 0.39858
2003-02-13 13:47:32 51°19.475 2°47.375 7.59048 3.083124 31.847404 0.39858
2003-02-13 13:48:32 51°19.464 2°47.268 7.68189 3.084282 31.858123 0.364871
2003-02-13 13:49:32 51°19.473 2°47.164 7.094232 3.092809 31.943813 0.465999
2003-02-13 13:50:32 51°19.496 2°47.071 7.094232 3.099547 32.012396 0.567127
2003-02-13 13:51:32 51°19.53 2°46.987 7.45046 3.101863 32.038861 0.567127
2003-02-13 13:52:32 51°19.572 2°46.915 7.046476 3.103232 32.056183 0.634546
2003-02-13 13:53:32 51°19.62 2°46.855 7.448216 3.103863 32.067613 0.600836
2003-02-13 13:54:32 51°19.672 2°46.806 7.531303 3.106074 32.092884 0.567127
2003-02-13 13:55:32 51°19.727 2°46.767 7.338292 3.10639 32.089753 0.533418
2003-02-13 13:56:32 51°19.781 2°46.741 7.104976 3.10818 32.10178 0.499708
2003-02-13 13:57:32 51°19.825 2°46.732 7.511955 3.110075 32.11922 0.432289
2003-02-13 13:58:32 51°19.858 2°46.728 6.916083 3.111127 32.123663 0.499708
2003-02-13 13:59:32 51°19.881 2°46.722 7.000307 3.111759 32.126665 0.600836
2003-02-13 14:00:32 51°19.896 2°46.71 7.282159 3.111654 32.120406 0.533418
2003-02-13 14:01:32 51°19.928 2°46.728 7.290327 3.113128 32.134713 0.499708
2003-02-13 14:02:32 51°19.93 2°46.865 7.640507 3.115128 32.149128 0.465999
2003-02-13 14:03:32 51°19.828 2°47.054 6.787444 3.114496 32.148658 0.465999
2003-02-13 14:04:32 51°19.742 2°47.255 7.138716 3.107653 32.095765 0.499708
2003-02-13 14:05:32 51°19.664 2°47.444 7.660108 3.103968 32.056189 0.533418
2003-02-13 14:06:32 51°19.588 2°47.625 7.654466 3.100284 32.011571 0.432289
2003-02-13 14:07:32 51°19.512 2°47.803 7.847401 3.091756 31.927593 0.39858
2003-02-13 14:08:32 51°19.435 2°47.979 7.975477 3.091019 31.917499 0.364871
2003-02-13 14:09:32 51°19.357 2°48.156 8.113922 3.087545 31.877822 0.364871
2003-02-13 14:10:32 51°19.279 2°48.331 7.944789 3.079545 31.804843 0.331161
2003-02-13 14:11:32 51°19.202 2°48.506 6.717302 3.053543 31.581047 0.297452
2003-02-13 14:12:32 51°19.123 2°48.68 7.438408 3.043649 31.499453 0.331161
2003-02-13 14:13:32 51°19.046 2°48.856 8.036905 3.041333 31.473789 0.331161
2003-02-13 14:14:32 51°18.969 2°49.028 7.64362 3.035543 31.413365 0.297452
2003-02-13 14:15:32 51°18.892 2°49.201 7.8378 3.033859 31.385825 0.297452
2003-02-13 14:16:32 51°18.817 2°49.373 7.585465 3.030911 31.362873 0.331161
2003-02-13 14:17:32 51°18.741 2°49.543 7.593498 3.032069 31.381082 0.39858
2003-02-13 14:18:32 51°18.665 2°49.714 7.286268 3.028175 31.340666 0.465999
2003-02-13 14:19:32 51°18.588 2°49.883 7.984042 3.02628 31.342971 0.600836
2003-02-13 14:20:32 51°18.512 2°50.053 7.314925 3.019123 31.280048 0.567127
2003-02-13 14:21:32 51°18.435 2°50.224 7.502985 3.004913 31.146204 0.499708
2003-02-13 14:22:32 51°18.356 2°50.393 7.322357 2.999334 31.097125 0.533418
2003-02-13 14:23:32 51°18.276 2°50.562 7.589117 2.994072 31.054924 0.533418
2003-02-13 14:24:32 51°18.197 2°50.732 6.96664 2.988704 31.006556 0.465999
2003-02-13 14:25:32 51°18.117 2°50.902 6.790846 2.976389 30.888373 0.465999
2003-02-13 14:26:32 51°18.036 2°51.073 7.430453 2.972916 30.855925 0.533418
2003-02-13 14:27:32 51°17.955 2°51.244 7.069745 2.967443 30.795646 0.499708
2003-02-13 14:28:32 51°17.874 2°51.414 7.30495 2.971548 30.833702 0.567127
2003-02-13 14:29:32 51°17.794 2°51.584 7.526625 2.974494 30.847854 0.634546
2003-02-13 14:30:32 51°17.713 2°51.753 7.265084 2.965443 30.764572 0.668255
2003-02-13 14:31:32 51°17.628 2°51.916 7.412247 2.957339 30.689639 0.701965
2003-02-13 14:32:32 51°17.519 2°52.049 7.159648 2.951866 30.635873 0.803093
2003-02-13 14:33:32 51°17.404 2°52.17 7.478898 2.947446 30.594965 0.803093
2003-02-13 14:34:32 51°17.272 2°52.253 7.465925 2.946814 30.591787 1.039059
2003-02-13 14:35:32 51°17.138 2°52.333 6.696669 2.943868 30.570997 0.97164
2003-02-13 14:36:32 51°17.005 2°52.414 6.817214 2.941447 30.546491 1.039059
2003-02-13 14:37:32 51°16.872 2°52.499 7.303777 2.943131 30.564174 1.005349
2003-02-13 14:38:32 51°16.739 2°52.582 6.715673 2.948393 30.618009 1.072768
2003-02-13 14:39:32 51°16.605 2°52.666 7.330765 2.951656 30.638338 1.140187
2003-02-13 14:40:32 51°16.473 2°52.747 6.982222 2.949445 30.604076 1.207606
2003-02-13 14:41:32 51°16.356 2°52.861 7.585173 2.948919 30.588312 1.173896
2003-02-13 14:42:32 51°16.248 2°52.992 7.510395 2.941026 30.501167 1.241315
2003-02-13 14:43:32 51°16.139 2°53.121 6.940678 2.919451 30.279179 1.477281
2003-02-13 14:44:32 51°16.031 2°53.247 7.763704 2.915768 30.251473 1.477281
2003-02-13 14:45:32 51°15.949 2°53.338 6.87297 2.913242 30.238615 1.51099
2003-02-13 14:46:32 51°15.878 2°53.407 6.700125 2.910296 30.212088 1.409862
2003-02-13 14:47:32 51°15.81 2°53.469 6.978094 2.904718 30.156216 1.578409
2003-02-13 14:48:32 51°15.742 2°53.524 7.177976 2.90335 30.146956 1.578409
2003-02-13 14:49:32 51°15.676 2°53.579 7.220051 2.901351 30.121646 1.645828
2003-02-13 14:50:32 51°15.611 2°53.634 7.226123 2.901771 30.121663 1.713247
2003-02-13 14:51:32 51°15.545 2°53.686 7.547283 2.903666 30.142559 1.645828
2003-02-13 14:52:32 51°15.462 2°53.766 6.978094 2.900719 30.11121 1.746956
2003-02-13 14:53:32 51°15.316 2°53.932 7.169449 2.887249 29.966539 2.252597
2003-02-13 14:54:32 51°15.157 2°54.114 7.111794 2.874411 29.826729 2.387435
2003-02-13 14:55:32 51°14.995 2°54.295 7.305342 2.868728 29.774372 2.320016
2003-02-13 14:56:32 51°14.832 2°54.482 6.948252 2.865677 29.742608 2.6234
2003-02-13 14:57:32 51°14.668 2°54.666 6.863566 2.862099 29.690597 2.555982
2003-02-13 14:58:32 51°14.511 2°54.851 7.174791 2.862625 29.665841 3.027913
2003-02-13 14:59:32 51°14.387 2°55.027 6.951841 2.866939 29.704103 4.544836